Time;durP1;ratioP1;P1;durP2;ratioP2;P2;SDS_P1;SDS_P2;PMS_P1;PMS_P2;Temp;Humidity;BMP_temperature;BMP_pressure;BME280_temperature;BME280_humidity;BME280_pressure;Samples;Min_cycle;Max_cycle;Signal;HPM_P1;HPM_P2
2022/12/27 00:00:01;;;;;;;4.77;1.93;;;;;;;3.60;100.00;99764.59;4963859;28;20211;-80
2022/12/27 00:02:30;;;;;;;7.17;2.17;;;;;;;3.55;100.00;99788.25;4971770;28;20203;-80
2022/12/27 00:04:58;;;;;;;6.53;2.00;;;;;;;3.51;100.00;99798.88;4962278;28;20227;-80
2022/12/27 00:07:30;;;;;;;8.17;1.70;;;;;;;3.57;100.00;99796.97;4977934;28;20205;-80
2022/12/27 00:09:58;;;;;;;9.83;1.93;;;;;;;3.43;100.00;99801.66;5022599;28;20633;-80
2022/12/27 00:12:28;;;;;;;4.17;1.93;;;;;;;3.50;100.00;99810.25;5052559;28;20216;-80
2022/12/27 00:14:57;;;;;;;7.67;2.10;;;;;;;3.51;100.00;99801.50;5005064;28;20203;-80
2022/12/27 00:17:28;;;;;;;7.10;2.20;;;;;;;3.61;100.00;99802.97;5003079;28;20202;-80
2022/12/27 00:19:58;;;;;;;7.30;1.97;;;;;;;3.56;100.00;99795.22;5007704;28;20693;-80
2022/12/27 00:22:32;;;;;;;2.83;1.53;;;;;;;3.63;100.00;99798.56;5003770;28;20198;-80
2022/12/27 00:25:00;;;;;;;5.90;1.90;;;;;;;3.57;100.00;99796.06;5003029;28;20206;-79
2022/12/27 00:27:31;;;;;;;5.97;1.70;;;;;;;3.63;100.00;99793.31;5009691;28;20194;-80
2022/12/27 00:30:01;;;;;;;5.80;1.70;;;;;;;3.54;100.00;99802.25;5016351;28;20254;-80
2022/12/27 00:32:30;;;;;;;6.97;1.67;;;;;;;3.49;100.00;99806.75;5003410;28;20199;-80
2022/12/27 00:34:58;;;;;;;6.53;2.10;;;;;;;3.50;100.00;99805.00;5005761;28;20191;-80
2022/12/27 00:37:27;;;;;;;8.63;2.00;;;;;;;3.48;100.00;99804.19;5002763;28;20289;-80
2022/12/27 00:39:57;;;;;;;7.70;1.70;;;;;;;3.43;100.00;99799.91;5030059;28;20192;-80
2022/12/27 00:42:25;;;;;;;5.07;1.87;;;;;;;3.33;100.00;99803.66;5010134;28;20248;-80
2022/12/27 00:44:57;;;;;;;5.00;2.10;;;;;;;3.48;100.00;99806.81;5004028;28;20297;-80
2022/12/27 00:47:27;;;;;;;4.10;1.70;;;;;;;3.30;100.00;99803.75;5001475;28;20253;-80
2022/12/27 00:49:58;;;;;;;4.60;2.00;;;;;;;3.53;100.00;99804.91;5004562;28;20249;-80
2022/12/27 00:52:28;;;;;;;6.87;2.00;;;;;;;3.38;100.00;99809.66;4949783;29;20196;-80
2022/12/27 00:54:59;;;;;;;5.87;1.83;;;;;;;3.40;100.00;99807.84;4940661;29;20296;-80
2022/12/27 00:57:28;;;;;;;6.07;1.83;;;;;;;3.34;100.00;99808.00;4948846;29;20197;-80
2022/12/27 01:00:01;;;;;;;4.10;1.83;;;;;;;3.40;100.00;99817.47;4955353;28;20282;-80
2022/12/27 01:02:39;;;;;;;4.83;1.80;;;;;;;3.34;100.00;99814.97;4989881;28;20199;-80
2022/12/27 01:05:08;;;;;;;6.30;2.10;;;;;;;3.42;100.00;99813.03;4982629;28;20199;-80
2022/12/27 01:07:37;;;;;;;4.97;2.40;;;;;;;3.50;100.00;99828.56;4982843;28;20269;-80
2022/12/27 01:10:06;;;;;;;4.30;1.60;;;;;;;3.37;100.00;99825.38;4982177;28;20462;-80
2022/12/27 01:12:36;;;;;;;5.00;1.73;;;;;;;3.52;100.00;99840.72;4932767;29;20679;-80
2022/12/27 01:15:09;;;;;;;5.17;2.00;;;;;;;3.61;100.00;99839.63;4933050;29;20220;-80
2022/12/27 01:17:38;;;;;;;7.80;2.13;;;;;;;3.36;100.00;99840.22;4978712;28;20211;-79
2022/12/27 01:20:08;;;;;;;8.87;2.13;;;;;;;3.32;100.00;99842.97;5000866;28;20195;-80
2022/12/27 01:22:36;;;;;;;3.30;2.00;;;;;;;3.50;100.00;99844.28;5008126;28;20202;-80
2022/12/27 01:25:05;;;;;;;5.50;2.07;;;;;;;3.52;100.00;99838.09;5006359;28;20261;-81
2022/12/27 01:27:35;;;;;;;3.80;2.00;;;;;;;3.40;100.00;99854.97;5000604;28;20206;-80
2022/12/27 01:30:09;;;;;;;6.20;1.90;;;;;;;3.56;100.00;99851.97;5010102;28;20213;-80
2022/12/27 01:32:38;;;;;;;5.63;2.30;;;;;;;3.57;100.00;99845.84;5044365;28;20254;-80
2022/12/27 01:35:06;;;;;;;7.37;2.47;;;;;;;3.39;100.00;99866.34;5043537;28;20217;-80
2022/12/27 01:37:35;;;;;;;3.70;2.00;;;;;;;3.38;100.00;99858.53;5044207;28;20205;-80
2022/12/27 01:40:05;;;;;;;4.17;2.10;;;;;;;3.50;100.00;99863.47;5042239;28;20278;-80
2022/12/27 01:42:50;;;;;;;6.87;2.30;;;;;;;3.68;100.00;99859.56;5055763;28;20193;-80
2022/12/27 01:45:22;;;;;;;8.17;2.20;;;;;;;3.61;100.00;99853.59;5052287;28;20200;-80
2022/12/27 01:48:03;;;;;;;6.00;2.50;;;;;;;3.65;100.00;99854.38;5050256;28;20281;-80
2022/12/27 01:50:34;;;;;;;10.13;2.70;;;;;;;3.60;100.00;99846.63;5048785;28;20268;-80
2022/12/27 01:53:13;;;;;;;7.13;2.53;;;;;;;3.58;100.00;99864.16;5051814;28;20201;-80
2022/12/27 01:55:48;;;;;;;6.23;2.37;;;;;;;3.60;100.00;99861.50;5051585;28;20205;-79
2022/12/27 01:58:22;;;;;;;8.40;3.20;;;;;;;3.62;100.00;99865.78;5053082;28;20627;-79
2022/12/27 02:00:52;;;;;;;8.03;2.63;;;;;;;3.62;100.00;99851.84;5048122;28;20254;-80
2022/12/27 02:03:26;;;;;;;7.50;2.57;;;;;;;3.58;100.00;99850.19;5049919;28;20239;-79
2022/12/27 02:05:56;;;;;;;10.30;2.67;;;;;;;3.55;100.00;99856.34;5053624;28;20201;-79
2022/12/27 02:08:45;;;;;;;8.53;2.30;;;;;;;3.63;100.00;99861.41;5050381;28;20200;-79
2022/12/27 02:11:15;;;;;;;4.23;2.27;;;;;;;3.58;100.00;99861.53;5053941;28;20250;-79
2022/12/27 02:13:46;;;;;;;5.57;2.33;;;;;;;3.65;100.00;99855.22;5049421;28;20217;-79
2022/12/27 02:16:18;;;;;;;4.50;2.40;;;;;;;3.78;100.00;99866.28;5041989;28;20197;-79
2022/12/27 02:18:47;;;;;;;8.17;2.23;;;;;;;3.72;100.00;99872.53;5010525;28;20721;-79
2022/12/27 02:21:41;;;;;;;7.23;2.20;;;;;;;3.85;100.00;99872.22;5001520;28;20228;-79
2022/12/27 02:24:53;;;;;;;7.30;1.93;;;;;;;3.71;100.00;99872.56;5007112;28;20198;-80
2022/12/27 02:27:45;;;;;;;9.30;2.47;;;;;;;3.75;100.00;99887.28;5001860;28;20202;-80
2022/12/27 02:30:15;;;;;;;5.97;2.03;;;;;;;3.73;100.00;99894.34;5013401;28;20301;-80
2022/12/27 02:32:50;;;;;;;3.00;1.53;;;;;;;3.72;100.00;99884.75;4986681;28;20230;-80
2022/12/27 02:35:24;;;;;;;6.53;2.20;;;;;;;3.76;100.00;99899.50;4987768;28;20241;-80
2022/12/27 02:37:58;;;;;;;3.90;1.53;;;;;;;3.77;100.00;99890.78;5021137;28;20204;-80
2022/12/27 02:54:59;;;;;;;6.00;2.10;;;;;;;3.65;100.00;99901.53;5053956;28;20691;-80
2022/12/27 02:57:37;;;;;;;5.10;2.07;;;;;;;3.60;100.00;99892.94;5050456;28;20794;-80
2022/12/27 03:03:22;;;;;;;7.67;1.70;;;;;;;3.61;100.00;99905.97;5053797;28;20200;-80
2022/12/27 03:06:41;;;;;;;6.07;1.73;;;;;;;3.65;100.00;99899.75;5051170;28;20201;-80
2022/12/27 03:15:57;;;;;;;4.17;1.83;;;;;;;3.60;100.00;99898.16;5053897;28;20221;-80
2022/12/27 03:18:37;;;;;;;4.10;1.57;;;;;;;3.65;100.00;99891.03;5053796;28;20212;-80
2022/12/27 03:26:53;;;;;;;6.27;1.70;;;;;;;3.59;100.00;99902.53;5052536;28;20197;-80
2022/12/27 03:35:10;;;;;;;4.87;1.73;;;;;;;3.52;100.00;99898.34;5073277;28;20223;-80
2022/12/27 03:38:02;;;;;;;3.97;1.60;;;;;;;3.62;100.00;99893.75;5068200;28;20188;-80
2022/12/27 03:43:09;;;;;;;8.63;2.60;;;;;;;3.50;100.00;99902.75;5064857;28;20262;-80
2022/12/27 03:43:29;;;;;;;8.37;1.97;;;;;;;3.51;100.00;99890.53;5070438;28;20226;-80
2022/12/27 03:48:55;;;;;;;3.20;1.60;;;;;;;3.60;100.00;99901.66;5052259;28;20242;-80
2022/12/27 03:51:27;;;;;;;6.00;1.60;;;;;;;3.61;100.00;99895.50;5066050;28;20257;-80
2022/12/27 03:54:03;;;;;;;8.07;1.70;;;;;;;3.53;100.00;99907.06;5068779;28;20235;-80
2022/12/27 03:56:32;;;;;;;2.93;1.47;;;;;;;3.58;100.00;99897.34;5069003;28;20188;-80
2022/12/27 03:59:02;;;;;;;7.03;1.57;;;;;;;3.65;100.00;99909.38;5069189;28;20242;-80
2022/12/27 04:01:30;;;;;;;5.03;1.60;;;;;;;3.53;100.00;99902.69;5061712;28;20211;-80
2022/12/27 04:03:58;;;;;;;8.73;1.60;;;;;;;3.64;100.00;99903.28;5067788;28;20204;-79
2022/12/27 04:06:28;;;;;;;6.00;1.50;;;;;;;3.65;100.00;99907.63;5070108;28;20228;-79
2022/12/27 04:36:39;;;;;;;8.47;2.00;;;;;;;3.85;100.00;99935.97;5069406;28;20217;-80
2022/12/27 04:39:09;;;;;;;4.17;1.80;;;;;;;3.73;100.00;99931.03;5063169;28;20195;-79
2022/12/27 04:55:58;;;;;;;5.07;1.67;;;;;;;3.83;100.00;99936.91;5070831;28;20216;-80
2022/12/27 04:58:27;;;;;;;5.77;1.57;;;;;;;3.78;100.00;99928.31;5069435;28;20215;-79
2022/12/27 05:03:46;;;;;;;3.50;1.70;;;;;;;3.84;100.00;99942.09;5072342;28;20192;-80
2022/12/27 05:06:15;;;;;;;7.67;1.50;;;;;;;3.86;100.00;99942.06;5062393;28;20196;-80
2022/12/27 05:14:18;;;;;;;6.40;1.70;;;;;;;3.83;100.00;99957.88;5073140;28;20254;-80
2022/12/27 05:16:47;;;;;;;4.20;1.90;;;;;;;3.77;100.00;99964.13;5071660;28;20287;-80
2022/12/27 05:19:15;;;;;;;6.07;1.60;;;;;;;3.79;100.00;99964.94;5072232;28;20204;-79
2022/12/27 05:25:33;;;;;;;6.77;1.80;;;;;;;3.87;100.00;99973.50;5068235;28;20200;-80
2022/12/27 05:27:21;;;;;;;9.17;2.00;;;;;;;3.83;100.00;99973.59;5075665;28;20193;-80
2022/12/27 05:29:49;;;;;;;8.07;2.00;;;;;;;3.85;100.00;99967.41;5071046;28;20255;-79
2022/12/27 05:32:19;;;;;;;6.30;1.87;;;;;;;3.87;100.00;99968.25;5073015;28;20200;-80
2022/12/27 05:34:47;;;;;;;9.03;1.87;;;;;;;3.89;100.00;99976.06;5066523;28;20243;-79
2022/12/27 05:37:16;;;;;;;6.00;1.73;;;;;;;3.83;100.00;99974.44;5069512;28;20203;-80
2022/12/27 05:39:45;;;;;;;7.00;2.13;;;;;;;3.82;100.00;99977.09;5064482;28;20594;-80
2022/12/27 05:42:14;;;;;;;7.50;1.70;;;;;;;3.91;100.00;99980.38;5067278;28;20188;-80
2022/12/27 05:44:44;;;;;;;4.23;1.97;;;;;;;3.87;100.00;99973.50;5067980;28;20200;-80
2022/12/27 05:47:12;;;;;;;4.33;1.70;;;;;;;3.93;100.00;99982.94;5067765;28;20196;-79
2022/12/27 05:49:40;;;;;;;5.33;1.63;;;;;;;3.88;100.00;99983.06;5070223;28;20200;-79
2022/12/27 05:52:09;;;;;;;5.10;1.83;;;;;;;4.00;100.00;99988.00;5066476;28;20227;-79
2022/12/27 05:54:38;;;;;;;4.40;1.90;;;;;;;3.95;100.00;99989.00;5067899;28;20196;-80
2022/12/27 05:57:06;;;;;;;2.53;1.50;;;;;;;3.97;100.00;99989.88;5063378;28;20227;-79
2022/12/27 05:59:36;;;;;;;8.13;2.37;;;;;;;3.98;100.00;99992.44;5071671;28;20195;-79
2022/12/27 06:02:06;;;;;;;3.10;1.57;;;;;;;3.91;100.00;99984.75;5072566;28;20202;-80
2022/12/27 06:04:38;;;;;;;3.57;1.70;;;;;;;3.94;100.00;99995.16;5064185;28;20258;-80
2022/12/27 06:07:07;;;;;;;7.40;1.87;;;;;;;3.93;100.00;99999.53;5068925;28;20279;-79
2022/12/27 06:09:35;;;;;;;4.83;1.60;;;;;;;4.02;100.00;100001.94;5068308;28;20238;-80
2022/12/27 06:12:04;;;;;;;6.10;1.67;;;;;;;3.94;100.00;100010.88;5065001;28;20197;-80
2022/12/27 06:14:34;;;;;;;7.07;1.77;;;;;;;4.07;100.00;100009.72;5065566;28;20705;-79
2022/12/27 06:17:03;;;;;;;5.57;1.63;;;;;;;4.06;100.00;100002.75;5068037;28;20216;-80
2022/12/27 06:19:33;;;;;;;4.17;1.77;;;;;;;4.08;100.00;100006.19;5013364;28;20233;-79
2022/12/27 06:22:05;;;;;;;4.73;1.77;;;;;;;4.13;100.00;100021.78;5010090;28;20249;-79
2022/12/27 06:24:34;;;;;;;8.20;2.00;;;;;;;4.11;100.00;100026.22;5002340;28;20191;-79
2022/12/27 06:27:07;;;;;;;5.03;1.90;;;;;;;4.02;100.00;100022.91;5004997;28;20657;-80
2022/12/27 06:29:39;;;;;;;4.20;1.70;;;;;;;4.05;100.00;100023.72;5009148;28;20268;-79
2022/12/27 06:32:07;;;;;;;6.37;2.33;;;;;;;4.03;100.00;100024.63;5004847;28;20202;-80
2022/12/27 06:34:38;;;;;;;7.23;1.87;;;;;;;4.03;100.00;100027.25;5008046;28;20198;-80
2022/12/27 06:37:06;;;;;;;3.80;1.80;;;;;;;3.97;100.00;100021.31;5019659;28;20224;-79
2022/12/27 06:39:36;;;;;;;7.50;2.10;;;;;;;4.02;100.00;100020.28;5066901;28;20255;-80
2022/12/27 06:42:04;;;;;;;4.17;2.03;;;;;;;4.05;100.00;100016.72;5062586;28;20708;-81
2022/12/27 06:44:36;;;;;;;8.70;2.60;;;;;;;4.14;100.00;100026.13;5013673;28;20193;-80
2022/12/27 06:47:05;;;;;;;7.03;1.93;;;;;;;4.09;100.00;100031.50;5029861;28;20197;-80
2022/12/27 06:49:34;;;;;;;5.37;2.00;;;;;;;4.18;100.00;100025.19;4986464;28;20260;-80
2022/12/27 06:52:04;;;;;;;3.97;2.07;;;;;;;4.17;100.00;100028.72;4988442;28;20203;-80
2022/12/27 06:54:33;;;;;;;4.90;2.07;;;;;;;4.22;100.00;100017.19;4967120;28;20196;-80
2022/12/27 06:57:02;;;;;;;9.57;2.47;;;;;;;4.24;100.00;100032.88;4971006;28;20215;-80
2022/12/27 06:59:30;;;;;;;4.80;1.97;;;;;;;4.20;100.00;100026.00;4963855;28;20202;-80
2022/12/27 07:01:59;;;;;;;4.07;1.87;;;;;;;4.21;100.00;100028.59;4972304;28;20246;-79
2022/12/27 07:04:28;;;;;;;11.27;2.50;;;;;;;4.23;100.00;100026.78;4987565;28;20214;-79
2022/12/27 07:06:56;;;;;;;9.47;2.10;;;;;;;4.29;100.00;100031.88;4992723;28;20195;-79
2022/12/27 07:09:26;;;;;;;4.90;1.97;;;;;;;4.21;100.00;100040.81;4980796;28;20203;-80
2022/12/27 07:11:54;;;;;;;4.30;1.77;;;;;;;4.23;100.00;100028.53;4933244;29;20200;-80
2022/12/27 07:14:23;;;;;;;6.87;2.07;;;;;;;4.14;100.00;100028.75;4892603;29;20226;-80
2022/12/27 07:16:53;;;;;;;9.63;2.37;;;;;;;4.16;100.00;100040.09;4887275;29;20218;-80
2022/12/27 07:19:22;;;;;;;11.10;2.30;;;;;;;4.08;100.00;100047.28;4911079;29;20193;-79
2022/12/27 07:21:50;;;;;;;9.67;3.70;;;;;;;4.11;100.00;100037.56;4926484;29;20245;-80
2022/12/27 07:24:21;;;;;;;9.70;2.93;;;;;;;4.18;100.00;100046.16;4929659;29;20229;-80
2022/12/27 07:26:51;;;;;;;11.73;2.60;;;;;;;4.12;100.00;100044.53;4923292;29;20205;-79
2022/12/27 07:29:19;;;;;;;12.70;2.70;;;;;;;4.11;100.00;100057.69;4935526;28;20231;-80
2022/12/27 07:31:54;;;;;;;5.10;2.27;;;;;;;4.10;100.00;100061.19;4989419;28;20280;-79
2022/12/27 07:34:24;;;;;;;5.23;2.57;;;;;;;4.05;100.00;100065.66;4983712;28;20203;-80
2022/12/27 07:36:53;;;;;;;7.47;2.70;;;;;;;4.00;100.00;100066.66;4982717;28;20226;-80
2022/12/27 07:39:21;;;;;;;5.10;2.30;;;;;;;4.02;100.00;100084.97;5035242;28;20189;-80
2022/12/27 07:41:51;;;;;;;5.83;2.23;;;;;;;4.15;100.00;100075.94;5064944;28;20193;-79
2022/12/27 07:44:20;;;;;;;6.90;2.33;;;;;;;4.16;100.00;100080.28;5067732;28;20199;-79
2022/12/27 07:46:49;;;;;;;8.60;2.57;;;;;;;4.00;100.00;100086.75;4985678;28;20195;-79
2022/12/27 07:49:18;;;;;;;9.30;2.97;;;;;;;4.04;100.00;100085.78;4988574;28;20195;-80
2022/12/27 07:51:46;;;;;;;8.17;2.90;;;;;;;4.06;100.00;100084.00;4987297;28;20195;-80
2022/12/27 07:54:15;;;;;;;4.93;2.00;;;;;;;4.10;100.00;100090.03;4989254;28;20198;-79
2022/12/27 07:56:43;;;;;;;6.60;2.33;;;;;;;3.94;100.00;100090.38;4973148;28;20226;-80
2022/12/27 07:59:15;;;;;;;5.30;1.83;;;;;;;4.03;100.00;100086.69;4985080;28;20225;-79
2022/12/27 08:04:26;;;;;;;6.77;2.10;;;;;;;3.97;100.00;100099.94;4945486;28;20206;-80
2022/12/27 08:07:00;;;;;;;4.10;2.40;;;;;;;3.97;100.00;100095.56;4985813;28;20310;-79
2022/12/27 08:09:32;;;;;;;6.17;2.00;;;;;;;3.92;100.00;100100.03;4988992;28;20198;-79
2022/12/27 08:12:01;;;;;;;6.57;2.23;;;;;;;4.01;100.00;100101.59;4985443;28;20241;-79
2022/12/27 08:14:31;;;;;;;9.53;2.57;;;;;;;3.95;100.00;100102.56;4987729;28;20646;-80
2022/12/27 08:17:05;;;;;;;6.27;2.40;;;;;;;4.00;100.00;100103.34;4984563;28;20218;-80
2022/12/27 08:19:34;;;;;;;5.83;2.03;;;;;;;4.19;100.00;100111.66;4988454;28;20678;-80
2022/12/27 08:22:05;;;;;;;7.17;1.97;;;;;;;4.09;100.00;100106.66;4985479;28;20195;-80
2022/12/27 08:24:33;;;;;;;6.57;2.10;;;;;;;4.10;100.00;100113.63;4984164;28;20276;-80
2022/12/27 08:27:04;;;;;;;6.13;2.20;;;;;;;4.10;100.00;100111.00;4984908;28;20246;-80
2022/12/27 08:29:36;;;;;;;7.63;2.30;;;;;;;4.20;100.00;100108.13;5055187;28;20226;-80
2022/12/27 08:32:05;;;;;;;7.43;2.10;;;;;;;4.13;100.00;100108.31;5061684;28;20254;-80
2022/12/27 08:34:33;;;;;;;4.67;2.33;;;;;;;4.19;100.00;100110.81;5066283;28;20208;-80
2022/12/27 08:37:02;;;;;;;5.50;2.60;;;;;;;4.21;100.00;100112.47;5062909;28;20216;-80
2022/12/27 08:39:33;;;;;;;11.63;2.73;;;;;;;4.50;100.00;100113.56;5062184;28;20196;-80
2022/12/27 08:42:01;;;;;;;6.07;2.40;;;;;;;4.60;100.00;100112.44;5059301;28;20200;-80
2022/12/27 08:44:30;;;;;;;4.80;2.00;;;;;;;4.63;100.00;100114.13;5065419;28;20197;-80
2022/12/27 08:47:00;;;;;;;10.87;2.70;;;;;;;4.73;100.00;100111.25;5065267;28;20192;-80
2022/12/27 08:49:31;;;;;;;6.80;2.50;;;;;;;4.91;100.00;100128.28;5069045;28;20223;-80
2022/12/27 08:51:59;;;;;;;6.57;2.60;;;;;;;4.88;100.00;100123.97;5008026;28;20187;-80
2022/12/27 08:54:29;;;;;;;9.10;4.67;;;;;;;4.79;100.00;100116.34;5001386;28;20244;-80
2022/12/27 08:56:58;;;;;;;7.90;3.00;;;;;;;4.74;100.00;100130.50;5010035;28;20193;-80
2022/12/27 08:59:27;;;;;;;42.93;28.07;;;;;;;4.67;100.00;100127.16;4952109;28;20256;-80
2022/12/27 09:01:57;;;;;;;12.93;6.40;;;;;;;4.45;100.00;100132.06;4950888;28;20208;-80
2022/12/27 09:04:27;;;;;;;18.50;11.87;;;;;;;4.50;100.00;100113.56;4949857;29;20196;-80
2022/12/27 09:06:56;;;;;;;5.13;2.50;;;;;;;4.46;100.00;100118.03;4932290;29;20201;-80
2022/12/27 09:09:25;;;;;;;4.60;1.70;;;;;;;4.69;100.00;100121.84;4878599;29;20646;-80
2022/12/27 09:11:53;;;;;;;8.23;2.13;;;;;;;4.82;100.00;100110.13;4913156;29;20201;-80
2022/12/27 09:14:22;;;;;;;4.07;2.00;;;;;;;4.93;100.00;100110.75;4911213;29;20201;-80
2022/12/27 09:16:50;;;;;;;5.63;1.93;;;;;;;4.97;100.00;100124.66;4913977;29;20216;-80
2022/12/27 09:19:19;;;;;;;6.13;1.90;;;;;;;5.06;100.00;100125.28;4915362;29;20220;-80
2022/12/27 09:21:49;;;;;;;5.63;2.20;;;;;;;4.96;100.00;100134.28;4856640;29;20401;-80
2022/12/27 09:24:17;;;;;;;4.90;2.00;;;;;;;5.09;100.00;100140.09;4856223;29;20196;-80
2022/12/27 09:26:46;;;;;;;6.37;2.23;;;;;;;5.12;100.00;100146.13;4907573;28;20196;-80
2022/12/27 09:29:14;;;;;;;6.23;2.10;;;;;;;5.14;100.00;100144.31;5005379;28;20198;-80
2022/12/27 09:31:45;;;;;;;5.53;1.97;;;;;;;5.13;100.00;100139.97;5001482;28;20202;-80
2022/12/27 09:34:15;;;;;;;8.53;2.30;;;;;;;5.24;100.00;100138.84;5002925;28;20309;-80
2022/12/27 09:36:44;;;;;;;6.40;2.13;;;;;;;5.37;100.00;100145.47;4988129;28;20196;-80
2022/12/27 09:39:19;;;;;;;5.70;2.03;;;;;;;5.53;100.00;100136.28;4985873;28;20218;-80
2022/12/27 09:41:56;;;;;;;6.30;2.07;;;;;;;5.82;100.00;100134.59;5023981;28;20247;-80
2022/12/27 09:44:52;;;;;;;8.13;2.20;;;;;;;5.85;100.00;100138.00;5030566;28;20197;-81
2022/12/27 09:47:25;;;;;;;7.13;2.00;;;;;;;6.05;100.00;100140.06;5024426;28;20216;-80
2022/12/27 09:49:58;;;;;;;6.10;1.80;;;;;;;5.82;100.00;100143.34;5025287;28;20715;-80
2022/12/27 09:52:32;;;;;;;7.50;2.20;;;;;;;5.86;100.00;100144.09;5025024;28;20192;-81
2022/12/27 09:55:08;;;;;;;8.93;2.37;;;;;;;6.01;100.00;100138.44;5023832;28;20675;-80
2022/12/27 09:57:39;;;;;;;4.30;1.80;;;;;;;6.10;100.00;100142.56;5022890;28;20304;-80
2022/12/27 10:00:15;;;;;;;6.37;1.90;;;;;;;6.12;100.00;100140.75;5020490;28;20244;-81
2022/12/27 10:02:44;;;;;;;6.77;2.00;;;;;;;6.19;100.00;100129.16;5025991;28;20252;-81
2022/12/27 10:05:22;;;;;;;6.03;2.07;;;;;;;6.16;100.00;100127.44;5028399;28;20204;-80
2022/12/27 10:08:20;;;;;;;4.40;2.27;;;;;;;6.01;100.00;100123.53;5053032;28;20239;-80
2022/12/27 10:10:58;;;;;;;6.73;2.23;;;;;;;5.94;100.00;100147.41;5067267;28;20207;-81
2022/12/27 10:13:42;;;;;;;6.80;2.50;;;;;;;5.96;100.00;100141.19;5069550;28;20195;-80
2022/12/27 10:16:23;;;;;;;4.60;1.80;;;;;;;6.29;100.00;100122.69;5071983;28;20219;-80
2022/12/27 10:19:05;;;;;;;8.97;2.00;;;;;;;6.47;100.00;100137.91;5072277;28;20235;-80
2022/12/27 10:21:41;;;;;;;7.13;2.00;;;;;;;6.28;100.00;100128.88;5068787;28;20191;-80
2022/12/27 10:24:21;;;;;;;5.97;1.97;;;;;;;6.60;100.00;100118.19;5070315;28;20253;-80
2022/12/27 10:26:54;;;;;;;4.50;1.70;;;;;;;6.87;100.00;100126.09;5069414;28;20631;-80
2022/12/27 10:29:26;;;;;;;3.90;1.57;;;;;;;6.94;100.00;100127.59;5071017;28;20243;-80
2022/12/27 10:31:55;;;;;;;9.50;2.03;;;;;;;6.60;100.00;100117.31;5067145;28;20249;-80
2022/12/27 10:34:27;;;;;;;8.87;2.13;;;;;;;6.57;100.00;100107.75;5068795;28;20195;-80
2022/12/27 10:36:55;;;;;;;8.60;2.27;;;;;;;6.27;100.00;100106.06;5067547;28;20257;-80
2022/12/27 10:39:28;;;;;;;4.37;1.70;;;;;;;6.48;100.00;100105.41;5068143;28;20247;-80
2022/12/27 10:42:08;;;;;;;7.63;2.43;;;;;;;6.62;100.00;100107.59;5065640;28;20200;-80
2022/12/27 10:44:37;;;;;;;8.00;2.70;;;;;;;6.59;100.00;100115.59;5066001;28;20192;-81
2022/12/27 10:47:05;;;;;;;7.57;3.17;;;;;;;6.38;100.00;100113.66;5065449;28;20201;-80
2022/12/27 10:49:36;;;;;;;16.47;11.53;;;;;;;6.35;100.00;100121.63;5066101;28;20261;-80
2022/12/27 10:52:09;;;;;;;37.80;28.33;;;;;;;6.47;100.00;100114.22;5068065;28;20193;-80
2022/12/27 10:54:52;;;;;;;27.27;16.53;;;;;;;6.57;100.00;100112.16;5065232;28;20254;-80
2022/12/27 10:57:28;;;;;;;21.80;11.03;;;;;;;6.67;100.00;100104.81;5068190;28;20648;-80
2022/12/27 11:00:18;;;;;;;105.47;57.17;;;;;;;6.81;100.00;100099.94;5068790;28;20224;-80
2022/12/27 11:02:52;;;;;;;8.37;3.30;;;;;;;6.46;100.00;100099.31;5069783;28;20200;-80
2022/12/27 11:05:23;;;;;;;6.13;2.60;;;;;;;6.45;100.00;100110.75;5068536;28;20188;-80
2022/12/27 11:07:53;;;;;;;6.50;2.63;;;;;;;6.38;100.00;100090.84;5071509;28;20193;-80
2022/12/27 11:10:24;;;;;;;5.13;1.83;;;;;;;6.71;100.00;100107.28;5024673;28;20202;-80
2022/12/27 11:12:58;;;;;;;5.53;2.10;;;;;;;6.67;100.00;100110.94;5023605;28;20202;-81
2022/12/27 11:15:33;;;;;;;5.97;2.47;;;;;;;6.87;100.00;100111.16;5029892;28;20198;-81
2022/12/27 11:18:09;;;;;;;7.97;2.83;;;;;;;7.00;100.00;100106.31;5029890;28;20193;-81
2022/12/27 11:20:39;;;;;;;11.53;3.10;;;;;;;7.00;100.00;100102.81;5025866;28;20652;-81
2022/12/27 11:23:15;;;;;;;7.57;3.87;;;;;;;7.02;100.00;100107.13;5027502;28;20244;-81
2022/12/27 11:25:53;;;;;;;7.10;2.20;;;;;;;7.43;100.00;100102.16;5030929;28;20198;-81
2022/12/27 11:28:32;;;;;;;5.73;2.30;;;;;;;7.78;100.00;100106.16;5029188;28;20629;-80
2022/12/27 11:31:03;;;;;;;15.13;9.37;;;;;;;7.41;100.00;100104.00;5006343;28;20252;-80
2022/12/27 11:33:38;;;;;;;67.13;37.07;;;;;;;7.52;100.00;100096.56;5003100;28;20203;-80
2022/12/27 11:36:08;;;;;;;23.33;16.80;;;;;;;7.60;100.00;100093.66;5004502;28;20249;-80
2022/12/27 11:38:39;;;;;;;24.63;22.03;;;;;;;7.65;100.00;100086.44;4961852;28;20219;-80
2022/12/27 11:41:12;;;;;;;5.43;3.27;;;;;;;7.85;100.00;100088.34;5001933;28;20194;-80
2022/12/27 11:43:48;;;;;;;6.40;1.90;;;;;;;8.22;100.00;100083.34;5006057;28;20735;-80
2022/12/27 11:46:27;;;;;;;4.70;1.83;;;;;;;8.70;100.00;100084.97;5007934;28;20193;-81
2022/12/27 11:48:59;;;;;;;3.07;1.63;;;;;;;8.68;100.00;100078.88;5012934;28;20221;-80
2022/12/27 11:51:50;;;;;;;8.23;1.90;;;;;;;9.21;100.00;100091.59;4991491;28;20325;-81
2022/12/27 11:54:40;;;;;;;2.87;1.70;;;;;;;8.37;100.00;100100.38;5038883;28;20200;-81
2022/12/27 11:57:20;;;;;;;4.53;1.90;;;;;;;8.04;100.00;100103.41;5066170;28;20193;-80
2022/12/27 12:00:13;;;;;;;4.47;1.80;;;;;;;7.78;100.00;100084.19;5063640;28;20227;-80
2022/12/27 12:02:55;;;;;;;5.27;2.10;;;;;;;7.40;100.00;100102.28;5068844;28;20192;-80
2022/12/27 12:05:47;;;;;;;3.37;1.93;;;;;;;7.82;100.00;100099.00;5063721;28;20708;-80
2022/12/27 12:08:32;;;;;;;6.53;2.00;;;;;;;7.89;100.00;100098.69;5059418;28;20655;-80
2022/12/27 12:11:09;;;;;;;4.03;2.20;;;;;;;7.41;100.00;100098.72;5061356;28;20200;-80
2022/12/27 12:13:57;;;;;;;6.47;2.07;;;;;;;7.32;100.00;100107.81;5070923;28;20265;-80
2022/12/27 12:17:01;;;;;;;7.13;2.10;;;;;;;7.59;100.00;100102.47;5065655;28;20196;-80
2022/12/27 12:19:54;;;;;;;2.97;1.77;;;;;;;8.04;100.00;100097.25;5068139;28;20259;-80
2022/12/27 12:22:38;;;;;;;7.63;2.20;;;;;;;8.45;100.00;100097.44;5066529;28;20189;-81
2022/12/27 12:25:34;;;;;;;5.83;1.53;;;;;;;8.41;100.00;100095.88;5022921;28;20201;-80
2022/12/27 12:28:31;;;;;;;7.53;2.10;;;;;;;7.53;100.00;100086.88;5025803;28;20206;-80
2022/12/27 12:31:39;;;;;;;6.30;1.97;;;;;;;7.98;100.00;100081.66;5030658;28;20364;-80
2022/12/27 12:34:29;;;;;;;4.50;2.03;;;;;;;8.55;100.00;100077.66;5029202;28;20308;-80
2022/12/27 12:37:17;;;;;;;5.37;2.00;;;;;;;9.00;100.00;100085.47;5022699;28;20301;-80
2022/12/27 12:40:07;;;;;;;5.90;2.10;;;;;;;8.77;100.00;100083.78;5023176;28;20222;-80
2022/12/27 12:42:45;;;;;;;6.97;1.90;;;;;;;9.25;100.00;100079.09;5039111;28;20185;-80
2022/12/27 12:45:42;;;;;;;5.07;1.50;;;;;;;9.94;100.00;100075.09;5063278;28;20188;-80
2022/12/27 12:48:52;;;;;;;3.53;1.20;;;;;;;10.25;100.00;100078.94;5037474;28;20196;-81
2022/12/27 12:51:44;;;;;;;5.43;1.60;;;;;;;9.48;100.00;100076.31;5062334;28;20258;-80
2022/12/27 12:54:40;;;;;;;6.63;1.70;;;;;;;9.50;100.00;100084.19;5066729;28;20193;-81
2022/12/27 12:57:25;;;;;;;4.73;1.73;;;;;;;8.79;100.00;100086.38;5026282;28;20200;-80
2022/12/27 13:00:08;;;;;;;4.30;1.83;;;;;;;8.20;100.00;100092.22;5066630;28;20248;-80
2022/12/27 13:03:13;;;;;;;7.97;2.07;;;;;;;7.62;100.00;100081.25;5065569;28;20192;-80
2022/12/27 13:05:47;;;;;;;5.60;1.60;;;;;;;7.62;100.00;100081.25;5068982;28;20220;-80
2022/12/27 13:08:27;;;;;;;8.53;2.57;;;;;;;7.24;100.00;100093.19;5064506;28;20203;-80
2022/12/27 13:11:28;;;;;;;3.50;1.50;;;;;;;7.33;100.00;100077.91;5067219;28;20202;-79
2022/12/27 13:14:27;;;;;;;6.43;2.13;;;;;;;7.09;100.00;100076.16;5072534;28;20206;-79
2022/12/27 13:17:03;;;;;;;7.13;2.73;;;;;;;7.04;100.00;100072.81;5070037;28;20199;-79
2022/12/27 13:19:47;;;;;;;10.87;3.83;;;;;;;7.30;100.00;100071.91;5069305;28;20212;-80
2022/12/27 13:22:26;;;;;;;8.80;3.20;;;;;;;6.98;100.00;100062.50;5062820;28;20227;-80
2022/12/27 13:25:09;;;;;;;5.77;2.53;;;;;;;6.73;100.00;100055.44;5067896;28;20204;-80
2022/12/27 13:27:48;;;;;;;8.03;3.27;;;;;;;6.85;100.00;100055.03;5062959;28;20195;-80
2022/12/27 13:30:20;;;;;;;9.83;3.00;;;;;;;6.87;100.00;100063.75;5069377;28;20219;-79
2022/12/27 13:33:05;;;;;;;9.90;3.00;;;;;;;7.14;100.00;100063.69;5062237;28;20723;-79